x

San Juan, Pr (41053) Weather Station

5:50pm - Sat 25th Oct 2014 All times are AST. -4 hours from GMT.

  • Wind
    11mph, 18mph gusts
  • Air Temp 86°f
  • Sea Pressure 1009.8mb
  • San Juan, Pr
  • San Juan, Pr

More Historic Weather Station data

Upgrade to MSW Pro to gain access to the past 30 days of data for over 8000 Wavebouys and Weather Stations around the globe.

Join Pro

Comparision Forecast

View Surf forecast
   
Sat 10/25 5:50pm  -   -  11 18 mph 1009.8mb - 86f
5:40pm  -   -  11 16 mph 1009.7mb - 87f
5:30pm  -   -  13 16 mph 1009.6mb - 87f
5:20pm  -   -  11 18 mph 1009.6mb - 87f
5:10pm  -   -  13 18 mph 1009.6mb - 87f
5:00pm 3ft 12s 13 18 mph 1009.5mb 85f 87f
4:50pm  -   -  13 20 mph 1009.6mb - 88f
4:40pm  -   -  13 18 mph 1009.5mb - 88f
4:30pm  -   -  13 20 mph 1009.5mb - 88f
4:20pm  -   -  16 20 mph 1009.5mb - 88f
4:10pm  -   -  16 18 mph 1009.6mb - 88f
4:00pm 3ft 12s 16 20 mph 1009.5mb 85f 89f
3:50pm  -   -  13 18 mph 1009.5mb - 89f
3:40pm  -   -  13 20 mph 1009.5mb - 89f
3:30pm  -   -  13 18 mph 1009.5mb - 89f
3:20pm  -   -  13 18 mph 1009.5mb - 89f
3:10pm  -   -  11 16 mph 1009.6mb - 89f
3:00pm 2.5ft 13s 11 18 mph 1009.6mb 85f 89f
2:50pm  -   -  11 16 mph 1009.8mb - 89f
2:40pm  -   -  11 16 mph 1009.8mb - 89f
2:30pm  -   -  11 18 mph 1009.9mb - 87f
2:20pm  -   -  13 18 mph 1009.9mb - 86f
2:10pm  -   -  16 18 mph 1010mb - 86f
2:00pm 3ft 13s 13 18 mph 1010.2mb 85f 87f
1:50pm  -   -  13 20 mph 1010.3mb - 86f
1:40pm  -   -  13 16 mph 1010.4mb - 86f
1:30pm  -   -  13 16 mph 1010.5mb - 85f
1:20pm  -   -  13 18 mph 1010.7mb - 85f
1:10pm  -   -  13 18 mph 1010.8mb - 85f
1:00pm 3ft 13s 13 18 mph 1011mb 85f 84f
12:50pm  -   -  13 18 mph 1011.2mb - 84f
12:40pm  -   -  11 16 mph 1011.4mb - 85f
12:30pm  -   -  13 16 mph 1011.6mb - 84f
12:20pm  -   -  11 13 mph 1011.7mb - 84f
12:10pm  -   -  11 13 mph 1012mb - 82f
12:00pm 2.5ft 13s 11 18 mph 1012.3mb 85f 83f
11:50am  -   -  13 18 mph 1012.2mb - 84f
11:40am  -   -  13 16 mph 1012.3mb - 85f
11:30am  -   -  13 16 mph 1012.3mb - 85f
11:20am  -   -  9 13 mph 1012.5mb - 85f
11:00am 2.5ft 13s 9 11 mph 1012.9mb 85f 85f
10:30am  -   -  7 9 mph 1013.4mb - 85f
10:20am  -   -  7 9 mph 1013.5mb - 85f
10:10am  -   -  7
mph
1013.6mb - 84f
10:00am 2.5ft 13s 7 9 mph 1013.7mb 85f 84f
9:50am  -   -  7
mph
1013.8mb - 84f
9:40am  -   -  4 7 mph 1013.8mb - 84f
9:30am  -   -  4 7 mph 1013.8mb - 84f
9:20am  -   -  4
mph
1013.7mb - 85f
9:10am  -   -  4 7 mph 1013.6mb - 85f
9:00am 2.5ft 13s 4
mph
1013.6mb 85f 85f
8:50am  -   -  2 4 mph 1013.5mb - 86f
8:40am  -   -  2 4 mph 1013.4mb - 85f
8:30am  -   -  4
mph
1013.4mb - 84f
8:20am  -   -  4 7 mph 1013.3mb - 84f
8:10am  -   -  7 9 mph 1013.1mb - 84f
8:00am 2.5ft 13s 4 9 mph 1013mb 85f 83f
7:50am  -   -  4 7 mph 1012.8mb - 83f
7:40am  -   -  4 9 mph 1012.8mb - 83f
7:30am  -   -  4 7 mph 1012.6mb - 83f
7:20am  -   -  4 7 mph 1012.6mb - 83f
7:10am  -   -  4
mph
1012.5mb - 83f
7:00am 2.5ft 13s 7
mph
1012.3mb 85f 82f
6:50am  -   -  7
mph
1012.3mb - 81f
6:40am  -   -  4 7 mph 1012.2mb - 81f
6:30am  -   -  7
mph
1012mb - 81f
6:20am  -   -  7 9 mph 1011.9mb - 81f
6:10am  -   -  4 7 mph 1011.7mb - 81f
6:00am 2ft 13s 4 7 mph 1011.6mb 85f 81f
5:50am  -   -  7 9 mph 1011.4mb - 82f
5:40am  -   -  7
mph
1011.4mb - 82f
5:30am  -   -  4
mph
1011.4mb - 82f
5:20am  -   -  4
mph
1011.4mb - 82f
5:00am 2ft 15s 4
mph
1011.3mb 85f 82f
4:30am  -   -  4
mph
1011.1mb - 82f
4:20am  -   -  2 4 mph 1011.1mb - 82f
4:10am  -   -  4 7 mph 1011mb - 82f
4:00am 2ft 13s 4 7 mph 1010.9mb 85f 82f
3:50am  -   -  4 7 mph 1010.8mb - 82f
3:40am  -   -  7 9 mph 1010.8mb - 82f
3:30am  -   -  4 7 mph 1010.8mb - 82f
3:20am  -   -  4
mph
1010.8mb - 82f
3:10am  -   -  4
mph
1010.9mb - 82f
3:00am 2.5ft 15s 4
mph
1011mb 85f 82f
2:50am  -   -  4 7 mph 1011.1mb - 82f
2:40am  -   -  4
mph
1011.3mb - 82f
2:30am  -   -  2 4 mph 1011.3mb - 82f
2:20am  -   -  4
mph
1011.3mb - 82f
2:00am 2ft 17s 4 7 mph 1011.6mb 85f 82f
1:30am  -   -  4 7 mph 1011.8mb - 83f
1:20am  -   -  4 7 mph 1011.9mb - 83f
1:10am  -   -  4 7 mph 1012mb - 83f
1:00am 2.5ft 17s 4 7 mph 1012.1mb 85f 83f
12:50am  -   -  4 7 mph 1012.2mb - 83f
12:40am  -   -  4 7 mph 1012.3mb - 83f
12:30am  -   -  4 7 mph 1012.4mb - 83f
12:20am  -   -  4 7 mph 1012.5mb - 83f
12:10am  -   -  4 7 mph 1012.5mb - 83f
12:00am 2.5ft 8s 7
mph
1012.5mb 85f 83f
Fri 10/24 11:50pm  -   -  7 9 mph 1012.6mb - 83f
11:40pm  -   -  4 7 mph 1012.6mb - 83f
11:30pm  -   -  4 7 mph 1012.6mb - 83f
11:20pm  -   -  4 7 mph 1012.6mb - 83f
11:10pm  -   -  4 7 mph 1012.6mb - 83f
11:00pm 2.5ft 8s 4 7 mph 1012.6mb 85f 83f
10:50pm  -   -  4 7 mph 1012.6mb - 83f
10:40pm  -   -  4 7 mph 1012.6mb - 84f
10:30pm  -   -  4 7 mph 1012.6mb - 84f
10:20pm  -   -  4 7 mph 1012.6mb - 84f
10:10pm  -   -  4 7 mph 1012.5mb - 84f
10:00pm 2.5ft 8s 4 7 mph 1012.5mb 85f 84f
9:50pm  -   -  7 9 mph 1012.4mb - 84f
9:40pm  -   -  4
mph
1012.3mb - 84f
9:30pm  -   -  4
mph
1012.3mb - 84f
9:20pm  -   -  4
mph
1012.2mb - 84f
9:10pm  -   -  4 7 mph 1012.2mb - 84f
9:00pm 2.5ft 4s 7 9 mph 1012.1mb 85f 84f
8:50pm  -   -  7 9 mph 1012mb - 84f
8:40pm  -   -  7 11 mph 1011.9mb - 84f
8:30pm  -   -  7 9 mph 1011.7mb - 84f
8:20pm  -   -  9 11 mph 1011.7mb - 84f
8:10pm  -   -  9 11 mph 1011.6mb - 84f
8:00pm 2.5ft 8s 9 11 mph 1011.6mb 85f 85f
7:50pm  -   -  9 13 mph 1011.5mb - 85f
7:40pm  -   -  9 11 mph 1011.3mb - 85f
7:30pm  -   -  9 13 mph 1011.3mb - 85f
7:20pm  -   -  9 13 mph 1011.1mb - 85f
7:10pm  -   -  9 13 mph 1011mb - 85f
7:00pm 2.5ft 9s 13 18 mph 1010.9mb 85f 85f
6:50pm  -   -  11 16 mph 1010.8mb - 85f
6:40pm  -   -  9 13 mph 1010.7mb - 86f
6:30pm  -   -  11 16 mph 1010.7mb - 86f
6:20pm  -   -  11 13 mph 1010.7mb - 86f
6:10pm  -   -  11 16 mph 1010.6mb - 86f
6:00pm 2.5ft 8s 11 16 mph 1010.5mb 85f 87f
5:50pm  -   -  11 16 mph 1010.4mb - 87f
5:40pm  -   -  11 16 mph 1010.4mb - 87f
5:30pm  -   -  11 16 mph 1010.4mb - 87f
5:20pm  -   -  11 16 mph 1010.4mb - 87f
5:10pm  -   -  9 13 mph 1010.3mb - 88f
5:00pm 2.5ft 4s 11 16 mph 1010.4mb 85f 88f
4:50pm  -   -  11 16 mph 1010.4mb - 88f
4:40pm  -   -  11 18 mph 1010.3mb - 88f
4:30pm  -   -  11 13 mph 1010.3mb - 88f
4:20pm  -   -  11 16 mph 1010.2mb - 88f
4:10pm  -   -  11 18 mph 1010.2mb - 88f
4:00pm 2.5ft 5s 11 18 mph 1010.2mb 85f 88f
3:50pm  -   -  13 20 mph 1010.2mb - 88f
3:40pm  -   -  11 16 mph 1010.2mb - 89f
3:30pm  -   -  13 18 mph 1010.2mb - 88f
3:20pm  -   -  11 18 mph 1010.1mb - 88f
3:10pm  -   -  13 20 mph 1010.2mb - 89f
3:00pm 2.5ft 8s 13 20 mph 1010.2mb 85f 88f
2:50pm  -   -  13 18 mph 1010.4mb - 89f
2:40pm  -   -  11 18 mph 1010.4mb - 89f
2:30pm  -   -  13 18 mph 1010.5mb - 89f
2:20pm  -   -  11 16 mph 1010.5mb - 89f
2:10pm  -   -  11 18 mph 1010.6mb - 89f
2:00pm 2.5ft 8s 11 16 mph 1010.7mb 85f 89f
1:50pm  -   -  11 16 mph 1010.9mb - 89f
1:40pm  -   -  11 16 mph 1011.1mb - 89f
1:30pm  -   -  9 11 mph 1011.2mb - 89f
1:20pm  -   -  9 16 mph 1011.3mb - 89f
1:10pm  -   -  9 13 mph 1011.4mb - 89f
1:00pm 2.5ft 5s 11 16 mph 1011.6mb 85f 89f
12:50pm  -   -  13 20 mph 1011.7mb - 89f
12:40pm  -   -  11 18 mph 1011.9mb - 89f
12:30pm  -   -  9 16 mph 1012mb - 89f
12:20pm  -   -  9 16 mph 1012.2mb - 89f
12:00pm 2.5ft 8s 11 16 mph 1012.5mb 85f 89f
11:00am 2.5ft 8s 9 11 mph 1013.4mb 85f 85f
10:50am  -   -  9 11 mph 1013.6mb - 85f
10:40am  -   -  7 9 mph 1013.7mb - 85f
10:30am  -   -  9 11 mph 1013.8mb - 85f
10:20am  -   -  9 11 mph 1013.8mb - 85f
10:10am  -   -  7 9 mph 1013.7mb - 85f
10:00am 2.5ft 8s 9
mph
1013.8mb 85f 85f
9:50am  -   -  7 9 mph 1013.9mb - 85f
9:40am  -   -  7 9 mph 1013.8mb - 85f
9:30am  -   -  7 9 mph 1013.8mb - 84f
9:20am  -   -  7 9 mph 1013.8mb - 84f
9:10am  -   -  9 11 mph 1013.7mb - 84f
9:00am  -   -   -  mph - 85f -
8:30am  -   -  7 9 mph 1013.5mb - 84f
8:20am  -   -  4 9 mph 1013.4mb - 84f
8:10am  -   -  7 9 mph 1013.4mb - 84f
8:00am 2.5ft 10s 7 11 mph 1013.2mb 85f 83f
7:50am  -   -  7 11 mph 1013.1mb - 83f
7:40am  -   -  7 9 mph 1013mb - 83f
7:30am  -   -  7 9 mph 1012.9mb - 83f
7:20am  -   -  4 7 mph 1013mb - 83f
7:10am  -   -  4
mph
1012.9mb - 83f
7:00am 2.5ft 8s 4
mph
1012.9mb 85f 82f
6:50am  -   -  2 4 mph 1012.9mb - 81f
6:40am  -   -  4
mph
1012.9mb - 81f
6:30am  -   -  4 7 mph 1012.8mb - 81f
6:20am  -   -  2 4 mph 1012.8mb - 81f
6:10am  -   -  4
mph
1012.5mb - 81f
6:00am 2.5ft 9s 2 4 mph 1012.5mb 85f 81f
5:50am  -   -  2 4 mph 1012.3mb - 81f
5:40am  -   -  2 4 mph 1012.3mb - 81f
5:30am  -   -  4 7 mph 1012.3mb - 81f
5:20am  -   -  4
mph
1012.3mb - 81f
5:10am  -   -  4 7 mph 1012.2mb - 82f
5:00am 2.5ft 9s 4
mph
1012.1mb 85f 82f
4:50am  -   -  2 4 mph 1012mb - 82f
4:40am  -   -  4 7 mph 1011.9mb - 82f
4:30am  -   -  4
mph
1011.9mb - 82f
4:20am  -   -  2 4 mph 1011.7mb - 82f
4:10am  -   -  2 4 mph 1011.6mb - 82f
4:00am 2.5ft 9s 2 4 mph 1011.7mb 85f 82f
3:50am  -   -  2 4 mph 1011.7mb - 82f
3:40am  -   -  4 7 mph 1011.8mb - 82f
3:30am  -   -  4 7 mph 1011.9mb - 82f
3:20am  -   -  4 7 mph 1011.9mb - 82f
3:10am  -   -  4
mph
1012mb - 82f
3:00am 2.5ft 9s 4
mph
1012mb 85f 82f
2:50am  -   -  4
mph
1011.9mb - 82f
2:40am  -   -  4 7 mph 1012mb - 82f
2:30am  -   -  7 9 mph 1012.1mb - 82f
2:20am  -   -  4 7 mph 1012.2mb - 82f
2:10am  -   -  4 9 mph 1012.2mb - 83f
2:00am 2.5ft 9s 4 7 mph 1012.3mb 85f 83f
1:50am  -   -  4
mph
1012.4mb - 82f
1:40am  -   -  4 7 mph 1012.5mb - 82f
1:30am  -   -  4 7 mph 1012.6mb - 82f
1:20am  -   -  4 7 mph 1012.6mb - 83f
1:10am  -   -  4 9 mph 1012.8mb - 83f
1:00am 2.5ft 9s 4 9 mph 1013mb 85f 83f
12:50am  -   -  7 9 mph 1013.1mb - 83f
12:40am  -   -  4 7 mph 1013.2mb - 83f
12:30am  -   -  4 7 mph 1013.4mb - 83f
12:20am  -   -  4 7 mph 1013.5mb - 83f
12:10am  -   -  4 7 mph 1013.4mb - 83f
12:00am 2.5ft 8s 4 7 mph 1013.5mb 85f 83f
Thu 10/23 11:50pm  -   -  4 7 mph 1013.6mb - 83f
11:40pm  -   -  4 7 mph 1013.6mb - 83f
11:30pm  -   -  4 7 mph 1013.6mb - 83f
11:20pm  -   -  7 9 mph 1013.6mb - 84f
11:10pm  -   -  4 7 mph 1013.7mb - 83f
11:00pm 2.5ft 5s 4 9 mph 1013.6mb 85f 83f
10:50pm  -   -  4 7 mph 1013.6mb - 83f
10:40pm  -   -  4 9 mph 1013.7mb - 84f
10:30pm  -   -  4 7 mph 1013.7mb - 84f
10:20pm  -   -  7 9 mph 1013.7mb - 84f
10:10pm  -   -  7 9 mph 1013.7mb - 84f
10:00pm 3ft 10s 7 9 mph 1013.6mb 85f 84f
9:50pm  -   -  7 9 mph 1013.6mb - 84f
9:40pm  -   -  7 11 mph 1013.5mb - 84f
9:30pm  -   -  7 11 mph 1013.4mb - 84f
9:20pm  -   -  7
mph
1013.4mb - 84f
9:10pm  -   -  7 9 mph 1013.3mb - 84f
9:00pm 3ft 5s 7 9 mph 1013.4mb 85f 84f
8:50pm  -   -  9 11 mph 1013.2mb - 84f
8:40pm  -   -  7 11 mph 1013.2mb - 85f
8:30pm  -   -  7 11 mph 1013.1mb - 84f
8:20pm  -   -  7 9 mph 1013mb - 84f
8:10pm  -   -  7 9 mph 1012.8mb - 84f
8:00pm 3ft 8s 9 11 mph 1012.7mb 85f 84f
7:50pm  -   -  11 13 mph 1012.6mb - 84f
7:40pm  -   -  11 13 mph 1012.6mb - 84f
7:30pm  -   -  9 11 mph 1012.4mb - 85f
7:20pm  -   -  11 16 mph 1012.2mb - 85f
7:10pm  -   -  11 16 mph 1012mb - 84f
7:00pm 3.5ft 5s 13 18 mph 1011.9mb 85f 84f
6:50pm  -   -  13 16 mph 1011.8mb - 84f
6:40pm  -   -  13 18 mph 1011.7mb - 85f
6:30pm  -   -  16 18 mph 1011.7mb - 85f
6:20pm  -   -  16 18 mph 1011.6mb - 85f
6:10pm  -   -  16 20 mph 1011.6mb - 85f
6:00pm 3ft 5s 13 18 mph 1011.5mb 85f 85f
5:50pm  -   -  13 18 mph 1011.4mb - 85f
5:40pm  -   -  16 18 mph 1011.3mb - 85f
5:30pm  -   -  18 22 mph 1011.2mb - 85f
5:20pm  -   -  18 22 mph 1011.1mb - 85f
5:10pm  -   -  18 20 mph 1011mb - 85f
5:00pm 3.5ft 5s 18 22 mph 1010.8mb 85f 85f
4:50pm  -   -  18 20 mph 1010.8mb - 85f
4:40pm  -   -  18 22 mph 1010.8mb - 85f
4:30pm  -   -  18 22 mph 1010.7mb - 85f
4:20pm  -   -  20 22 mph 1010.7mb - 85f
4:10pm  -   -  20 22 mph 1010.6mb - 85f
4:00pm 3.5ft 5s 18 22 mph 1010.5mb 85f 85f
3:50pm  -   -  18 22 mph 1010.5mb - 85f
3:40pm  -   -  18 22 mph 1010.5mb - 85f
3:30pm  -   -  18 22 mph 1010.5mb - 85f
3:20pm  -   -  18 22 mph 1010.4mb - 85f
3:10pm  -   -  18 22 mph 1010.5mb - 85f
3:00pm 3.5ft 5s 18 22 mph 1010.4mb 85f 85f
2:50pm  -   -  18 22 mph 1010.5mb - 85f
2:40pm  -   -  18 22 mph 1010.6mb - 85f
2:30pm  -   -  18 22 mph 1010.7mb - 85f
2:20pm  -   -  18 22 mph 1010.8mb - 85f
2:10pm  -   -  18 22 mph 1010.7mb - 85f
2:00pm 3.5ft 5s 18 22 mph 1010.9mb 85f 85f
1:50pm  -   -  18 22 mph 1011.1mb - 85f
1:40pm  -   -  18 25 mph 1011.3mb - 85f
1:30pm  -   -  18 22 mph 1011.4mb - 85f
1:20pm  -   -  18 20 mph 1011.6mb - 85f
1:10pm  -   -  18 22 mph 1011.7mb - 85f
1:00pm 3.5ft 9s 18 22 mph 1011.9mb 85f 85f
12:50pm  -   -  18 20 mph 1012.1mb - 85f
12:40pm  -   -  18 22 mph 1012.2mb - 85f
12:30pm  -   -  16 20 mph 1012.3mb - 85f
12:20pm  -   -  16 20 mph 1012.3mb - 85f
12:10pm  -   -  16 20 mph 1012.3mb - 85f
12:00pm 3.5ft 12s 18 20 mph 1012.5mb 85f 85f
11:50am  -   -  16 20 mph 1012.6mb - 85f
11:40am  -   -  16 20 mph 1012.7mb - 85f
11:30am  -   -  16 20 mph 1012.8mb - 85f
11:20am  -   -  16 18 mph 1013mb - 85f
11:10am  -   -  16 18 mph 1013.2mb - 85f
11:00am 3ft 8s 16 18 mph 1013.3mb 85f 85f
10:50am  -   -  13 16 mph 1013.5mb - 85f
10:40am  -   -  13 16 mph 1013.5mb - 85f
10:30am  -   -  13 16 mph 1013.7mb - 85f
10:20am  -   -  11 13 mph 1013.7mb - 85f
10:10am  -   -  11 13 mph 1013.7mb - 84f
10:00am 3ft 13s 11 13 mph 1013.8mb 85f 84f
9:50am  -   -  9 11 mph 1013.8mb - 85f
9:40am  -   -  9 11 mph 1013.8mb - 85f
9:30am  -   -  9 11 mph 1013.8mb - 84f
9:20am  -   -  7 9 mph 1013.7mb - 84f
9:10am  -   -  9 11 mph 1013.7mb - 84f
9:00am 3ft 9s 9 11 mph 1013.5mb 85f 84f
8:30am  -   -  9 11 mph 1013.2mb - 84f
8:20am  -   -  7 11 mph 1013.1mb - 83f
8:10am  -   -  7 11 mph 1013.1mb - 83f
8:00am 3ft 8s 9 11 mph 1013mb 85f 82f
7:50am  -   -  9 11 mph 1013mb - 82f
7:40am  -   -  9 13 mph 1013mb - 81f
7:30am  -   -  9 11 mph 1013mb - 80f
7:20am  -   -  11 13 mph 1013mb - 80f
7:10am  -   -  11 13 mph 1012.9mb - 80f
7:00am 3ft 9s 9 11 mph 1012.8mb 85f 81f
6:50am  -   -  7 13 mph 1012.6mb - 82f
6:40am  -   -  4 7 mph 1012.6mb - 81f
6:30am  -   -  7 9 mph 1012.5mb - 81f
6:20am  -   -  9 11 mph 1012.3mb - 81f
6:10am  -   -  11 13 mph 1012.4mb - 80f
6:00am 3ft 8s 13 16 mph 1012.5mb 85f 80f
5:50am  -   -  11 13 mph 1012.5mb - 80f
5:40am  -   -  7 9 mph 1012.6mb - 80f
5:30am  -   -  9 11 mph 1012.5mb - 80f
5:20am  -   -  7 11 mph 1012.3mb - 79f
5:10am  -   -  7 9 mph 1012.3mb - 79f
5:00am 3.5ft 8s 9 11 mph 1012.3mb 85f 79f
4:50am  -   -  7 9 mph 1012.3mb - 79f
4:40am  -   -  9 11 mph 1012.5mb - 79f
4:30am  -   -  9 13 mph 1012.4mb - 80f
4:20am  -   -  7 11 mph 1012.3mb - 81f
4:10am  -   -  7 9 mph 1012.3mb - 81f
4:00am 3ft 9s 7
mph
1012.3mb 85f 81f
3:50am  -   -  4 7 mph 1012.3mb - 80f
3:40am  -   -  7
mph
1012.2mb - 80f
3:30am  -   -  7 9 mph 1012.3mb - 81f
3:20am  -   -  4 7 mph 1012.3mb - 81f
3:10am  -   -  4 7 mph 1012.3mb - 81f
3:00am 3.5ft 10s 4 7 mph 1012.3mb 85f 81f
2:50am  -   -  7 9 mph 1012.3mb - 81f
2:40am  -   -  7 9 mph 1012.3mb - 82f
2:30am  -   -  7 9 mph 1012.5mb - 82f
2:20am  -   -  9
mph
1012.5mb - 82f
2:10am  -   -  7 11 mph 1012.5mb - 82f
2:00am 3.5ft 10s 7 9 mph 1012.6mb 85f 83f
1:50am  -   -  7 9 mph 1012.6mb - 82f
1:40am  -   -  7
mph
1012.8mb - 82f
1:30am  -   -  7 9 mph 1012.9mb - 83f
1:20am  -   -  7 9 mph 1013.1mb - 83f
1:10am  -   -  7 9 mph 1013.3mb - 83f
1:00am 3.5ft 10s 7 9 mph 1013.5mb 85f 83f
12:50am  -   -  7 9 mph 1013.7mb - 83f
12:40am  -   -  7 9 mph 1013.7mb - 83f
12:30am  -   -  7 9 mph 1013.8mb - 83f
12:20am  -   -  7 9 mph 1013.8mb - 83f
12:10am  -   -  7 9 mph 1013.8mb - 83f
12:00am 3.5ft 9s 7 9 mph 1013.8mb 85f 83f
Wed 10/22 11:30pm  -   -  7 9 mph 1014mb - 83f
11:20pm  -   -  7 9 mph 1013.9mb - 83f
11:10pm  -   -  9
mph
1013.8mb - 83f
11:00pm 3.5ft 10s 9 11 mph 1013.9mb 85f 83f
10:50pm  -   -  9 11 mph 1013.9mb - 83f
10:40pm  -   -  9 11 mph 1014mb - 83f
10:30pm  -   -  9 11 mph 1014mb - 83f
10:20pm  -   -  9 11 mph 1014mb - 83f
10:10pm  -   -  9
mph
1014mb - 83f
10:00pm 3.5ft 9s 9 11 mph 1014mb 85f 83f
9:50pm  -   -  9 11 mph 1013.9mb - 84f
9:40pm  -   -  9 11 mph 1013.8mb - 84f
9:30pm  -   -  9 11 mph 1013.7mb - 84f
9:20pm  -   -  9 11 mph 1013.7mb - 84f
9:10pm  -   -  9 11 mph 1013.6mb - 84f
9:00pm 3.5ft 10s 9 11 mph 1013.5mb 85f 84f
8:50pm  -   -  9 11 mph 1013.4mb - 84f
8:40pm  -   -  9 11 mph 1013.4mb - 84f
8:30pm  -   -  11 13 mph 1013.3mb - 84f
8:20pm  -   -  11 13 mph 1013.2mb - 84f
8:10pm  -   -  11 13 mph 1013.2mb - 84f
8:00pm 3.5ft 9s 11
mph
1013.1mb 85f 84f
7:50pm  -   -  11 13 mph 1012.9mb - 84f
7:40pm  -   -  11
mph
1012.6mb - 84f
7:30pm  -   -  11 13 mph 1012.5mb - 84f
7:20pm  -   -  11 13 mph 1012.3mb - 84f
7:10pm  -   -  11 13 mph 1012.1mb - 85f
7:00pm 3.5ft 9s 11 16 mph 1011.9mb 85f 84f
6:50pm  -   -  13 18 mph 1011.7mb - 85f
6:40pm  -   -  13 16 mph 1011.7mb - 85f
6:30pm  -   -  13 18 mph 1011.6mb - 85f
6:20pm  -   -  16 18 mph 1011.5mb - 85f
6:10pm  -   -  13 18 mph 1011.5mb - 85f
6:00pm 3.5ft 9s 16 18 mph 1011.5mb 85f 85f
5:50pm  -   -  16 18 mph 1011.6mb - 85f
5:40pm  -   -  16 20 mph 1011.6mb - 85f
5:30pm  -   -  16 18 mph 1011.5mb - 85f
5:20pm  -   -  16 18 mph 1011.4mb - 85f
5:10pm  -   -  16 18 mph 1011.4mb - 85f
5:00pm 4ft 10s 16 18 mph 1011.4mb 85f 85f
4:50pm  -   -  16 18 mph 1011.4mb - 85f
4:40pm  -   -  16 18 mph 1011.4mb - 85f
4:30pm  -   -  16 20 mph 1011.4mb - 85f
4:20pm  -   -  16 20 mph 1011.4mb - 85f
4:10pm  -   -  16 20 mph 1011.3mb - 85f
4:00pm 3.5ft 10s 16 18 mph 1011.3mb 85f 85f
3:50pm  -   -  18 20 mph 1011.3mb - 85f
3:40pm  -   -  16 20 mph 1011.2mb - 85f
3:30pm  -   -  16 20 mph 1011.2mb - 85f
3:20pm  -   -  18 22 mph 1011.3mb - 85f
3:10pm  -   -  18 20 mph 1011.3mb - 85f
3:00pm 3.5ft 10s 16 20 mph 1011.4mb 85f 85f
2:30pm  -   -  18 20 mph 1011.6mb - 85f
2:20pm  -   -  16 20 mph 1011.6mb - 85f
2:10pm  -   -  16 20 mph 1011.7mb - 85f
2:00pm 4ft 11s 16 20 mph 1011.8mb 85f 85f
1:50pm  -   -  16 18 mph 1011.9mb - 85f
1:40pm  -   -  16 18 mph 1011.9mb - 85f
1:30pm  -   -  16 18 mph 1012.1mb - 84f
1:20pm  -   -  13 18 mph 1012.3mb - 84f
1:00pm 3.5ft 10s 13 18 mph 1012.5mb 85f 84f
12:30pm  -   -  13 18 mph 1013mb - 84f
12:20pm  -   -  13 16 mph 1013.1mb - 84f
12:00pm 3.5ft 9s 13 18 mph 1013.4mb 85f 84f
11:30am  -   -  13 16 mph 1013.8mb - 84f
11:20am  -   -  13 16 mph 1014mb - 84f
11:10am  -   -  13 18 mph 1014.2mb - 84f
11:00am 3.5ft 11s 13 18 mph 1014.3mb 85f 84f
10:50am  -   -  13 18 mph 1014.5mb - 84f
10:40am  -   -  13 16 mph 1014.7mb - 84f
10:30am  -   -  13 16 mph 1014.8mb - 84f
10:20am  -   -  13 16 mph 1014.9mb - 84f
10:10am  -   -  13 16 mph 1014.9mb - 84f
10:00am 3.5ft 9s 11 16 mph 1014.8mb 85f 84f
9:50am  -   -  13 16 mph 1014.9mb - 84f
9:40am  -   -  13 16 mph 1014.9mb - 84f
9:30am  -   -  13 16 mph 1014.9mb - 84f
9:20am  -   -  11 16 mph 1014.9mb - 84f
9:10am  -   -  11 16 mph 1014.9mb - 84f
9:00am 3.5ft 10s 13 16 mph 1014.7mb 85f 84f
8:50am  -   -  13 16 mph 1014.6mb - 84f
8:40am  -   -  13 16 mph 1014.6mb - 84f
8:30am  -   -  11 13 mph 1014.6mb - 84f
8:20am  -   -  11 13 mph 1014.5mb - 84f
8:10am  -   -  9 13 mph 1014.5mb - 83f
8:00am 3.5ft 13s 7 11 mph 1014.6mb 85f 83f
7:50am  -   -  7 9 mph 1014.4mb - 82f
7:40am  -   -  7 9 mph 1014.4mb - 82f
7:30am  -   -  7 9 mph 1014.2mb - 82f
7:20am  -   -  4 7 mph 1014.2mb - 83f
7:10am  -   -  4
mph
1014.1mb - 82f
7:00am 3ft 13s 4
mph
1014mb 85f 82f
6:50am  -   -  2 4 mph 1013.9mb - 81f
6:40am  -   -  2 4 mph 1013.8mb - 80f
6:30am  -   -  4 7 mph 1013.7mb - 80f
6:20am  -   -  4 7 mph 1013.6mb - 80f
6:10am  -   -  7 9 mph 1013.6mb - 80f
6:00am 3.5ft 13s 7 9 mph 1013.4mb 85f 80f
5:30am  -   -  4 7 mph 1013.1mb - 81f
5:20am  -   -  4
mph
1013mb - 80f
5:10am  -   -  4 7 mph 1012.9mb - 80f
5:00am 3.5ft 10s 4 7 mph 1012.8mb 85f 80f
4:50am  -   -  4 7 mph 1012.7mb - 80f
4:40am  -   -  4 7 mph 1012.8mb - 80f
4:30am  -   -  4 7 mph 1012.8mb - 81f
4:20am  -   -  4 7 mph 1012.7mb - 81f
4:10am  -   -  4 7 mph 1012.8mb - 81f
4:00am 3.5ft 13s 4 7 mph 1012.8mb 85f 81f
3:50am  -   -  2 4 mph 1012.9mb - 81f
3:40am  -   -  4 7 mph 1012.9mb - 81f
3:30am  -   -  4
mph
1012.9mb - 81f
3:20am  -   -  4 7 mph 1012.9mb - 81f
3:10am  -   -  4 9 mph 1013.1mb - 81f
3:00am 3.5ft 13s 4 7 mph 1013.1mb 85f 81f
2:50am  -   -  4 7 mph 1013.2mb - 81f
2:40am  -   -  4 7 mph 1013.2mb - 82f
2:30am  -   -  4 7 mph 1013.3mb - 82f
2:20am  -   -  4 7 mph 1013.3mb - 82f
2:10am  -   -  4 7 mph 1013.4mb - 82f
2:00am 3.5ft 13s 4 7 mph 1013.4mb 85f 82f
1:50am  -   -  7 11 mph 1013.5mb - 83f
1:40am  -   -  7 11 mph 1013.5mb - 83f
1:30am  -   -  9 11 mph 1013.6mb - 83f
1:20am  -   -  9 11 mph 1013.7mb - 83f
1:10am  -   -  9 11 mph 1013.7mb - 83f
1:00am 3.5ft 10s 9 11 mph 1013.8mb 85f 83f
12:50am  -   -  9 11 mph 1013.9mb - 83f
12:40am  -   -  9 11 mph 1013.9mb - 83f
12:30am  -   -  9 11 mph 1014mb - 83f
12:20am  -   -  9 11 mph 1014.1mb - 83f
12:10am  -   -  9 11 mph 1014.2mb - 83f
12:00am 3.5ft 13s 9 13 mph 1014.3mb 85f 83f
Tue 10/21 11:50pm  -   -  9 11 mph 1014.4mb - 83f
11:40pm  -   -  11 18 mph 1014.5mb - 83f
11:30pm  -   -  16 20 mph 1014.5mb - 83f
11:20pm  -   -  11 18 mph 1014.4mb - 84f
11:10pm  -   -  9 11 mph 1014.4mb - 84f
11:00pm 3.5ft 13s 9 11 mph 1014.4mb 85f 84f
10:50pm  -   -  9 11 mph 1014.3mb - 83f
10:40pm  -   -  11 13 mph 1014.3mb - 83f